createdAt,value
2019-05-17T00:01:57.522Z,11.80
2019-05-17T00:07:02.311Z,13.67
2019-05-17T00:12:07.882Z,14.37
2019-05-17T00:17:14.108Z,12.53
2019-05-17T00:22:19.661Z,12.67
2019-05-17T00:27:26.477Z,8.90
2019-05-17T00:32:32.204Z,15.43
2019-05-17T00:37:37.846Z,16.93
2019-05-17T00:42:43.398Z,11.13
2019-05-17T00:47:48.926Z,14.77
2019-05-17T00:52:56.517Z,17.23
2019-05-17T00:58:01.743Z,14.50
2019-05-17T01:03:07.398Z,14.00
2019-05-17T01:08:13.051Z,20.37
2019-05-17T01:13:18.586Z,13.23
2019-05-17T01:18:24.161Z,16.50
2019-05-17T01:23:29.751Z,15.70
2019-05-17T01:28:36.348Z,20.70
2019-05-17T01:33:42.106Z,14.90
2019-05-17T01:38:47.677Z,18.07
2019-05-17T01:43:53.314Z,19.37
2019-05-17T01:48:59.003Z,18.53
2019-05-17T01:54:06.879Z,14.93
2019-05-17T01:59:12.450Z,20.37
2019-05-17T02:04:18.090Z,16.07
2019-05-17T02:09:34.800Z,15.90
2019-05-17T02:14:31.110Z,15.17
2019-05-17T02:19:37.155Z,11.37
2019-05-17T02:24:42.995Z,24.17
2019-05-17T02:29:48.533Z,19.60
2019-05-17T02:34:54.007Z,16.53
2019-05-17T02:40:04.792Z,16.53
2019-05-17T02:45:06.802Z,17.57
2019-05-17T02:50:13.126Z,17.67
2019-05-17T02:55:19.236Z,10.13
2019-05-17T03:00:24.999Z,13.30
2019-05-17T03:05:33.856Z,18.80
2019-05-17T03:10:37.850Z,14.87
2019-05-17T03:15:43.539Z,16.73
2019-05-17T03:20:52.274Z,13.87
2019-05-17T03:25:56.258Z,15.57
2019-05-17T03:31:08.024Z,13.03
2019-05-17T03:36:09.270Z,15.63
2019-05-17T03:41:23.515Z,14.03
2019-05-17T03:46:23.170Z,17.20
2019-05-17T03:51:29.039Z,13.83
2019-05-17T03:56:34.758Z,14.90
2019-05-17T04:01:43.323Z,12.73
2019-05-17T04:06:47.687Z,9.67
2019-05-17T04:11:56.478Z,11.90
2019-05-17T04:17:03.999Z,12.97
2019-05-17T04:22:09.574Z,12.53
2019-05-17T04:27:15.561Z,13.03
2019-05-17T04:32:23.284Z,14.83
2019-05-17T04:37:28.311Z,10.13
2019-05-17T04:42:33.773Z,20.53
2019-05-17T04:47:39.338Z,13.73
2019-05-17T04:52:44.989Z,16.40
2019-05-17T04:57:52.983Z,13.77
2019-05-17T05:02:57.865Z,13.10
2019-05-17T05:08:03.805Z,11.43
2019-05-17T05:13:09.359Z,17.90
2019-05-17T05:18:14.930Z,11.73
2019-05-17T05:23:23.934Z,11.33
2019-05-17T05:28:27.981Z,9.83
2019-05-17T05:33:33.611Z,13.13
2019-05-17T05:38:39.255Z,17.20
2019-05-17T05:43:44.894Z,12.00
2019-05-17T05:48:52.196Z,18.83
2019-05-17T05:53:57.620Z,12.80
2019-05-17T05:59:04.580Z,11.80
2019-05-17T06:04:11.787Z,9.87
2019-05-17T06:09:17.505Z,10.47
2019-05-17T06:14:23.178Z,11.33
2019-05-17T06:19:28.726Z,22.87
2019-05-17T06:24:34.306Z,14.87
2019-05-17T06:29:41.535Z,12.93
2019-05-17T06:34:47.230Z,11.47
2019-05-17T06:39:52.928Z,14.77
2019-05-17T06:45:01.937Z,15.93
2019-05-17T06:50:06.716Z,11.23
2019-05-17T06:55:13.012Z,14.60
2019-05-17T07:00:23.776Z,18.53
2019-05-17T07:05:30.323Z,12.40
2019-05-17T07:10:36.282Z,19.73
2019-05-17T07:15:47.212Z,12.50
2019-05-17T07:20:50.133Z,16.30
2019-05-17T07:25:56.018Z,11.97
2019-05-17T07:31:01.583Z,23.13
2019-05-17T07:36:07.080Z,16.77
2019-05-17T07:41:12.706Z,14.93
2019-05-17T07:46:20.492Z,18.80
2019-05-17T07:51:25.442Z,15.23
2019-05-17T07:56:31.029Z,20.33
2019-05-17T08:01:36.625Z,14.70
2019-05-17T08:06:42.187Z,18.70
2019-05-17T08:11:50.061Z,17.83
2019-05-17T08:16:55.267Z,15.00
2019-05-17T08:22:00.826Z,21.63
2019-05-17T08:27:06.552Z,25.00
2019-05-17T08:32:12.232Z,17.50
2019-05-17T08:37:20.308Z,18.10
2019-05-17T08:42:25.414Z,20.37
2019-05-17T08:47:31.082Z,22.93
2019-05-17T08:52:36.856Z,21.80
2019-05-17T08:57:42.516Z,20.10
2019-05-17T09:02:50.022Z,13.63
2019-05-17T09:07:55.436Z,21.23
2019-05-17T09:13:01.027Z,24.37
2019-05-17T09:18:06.728Z,18.93
2019-05-17T09:23:12.318Z,20.45
2019-05-17T09:28:20.311Z,20.30
2019-05-17T09:33:25.073Z,14.33
2019-05-17T09:38:30.575Z,17.15
2019-05-17T09:43:36.244Z,20.30
2019-05-17T09:48:41.827Z,14.68
2019-05-17T09:53:49.594Z,20.45
2019-05-17T09:58:54.713Z,12.95
2019-05-17T10:04:00.501Z,16.05
2019-05-17T10:09:09.446Z,11.10
2019-05-17T10:14:24.604Z,10.80
2019-05-17T10:19:23.566Z,15.48
2019-05-17T10:24:37.877Z,11.43
2019-05-17T10:29:36.146Z,15.25
2019-05-17T10:34:41.749Z,15.40
2019-05-17T10:39:47.250Z,18.70
2019-05-17T10:44:54.722Z,19.55
2019-05-17T10:50:00.193Z,17.45
2019-05-17T10:55:05.983Z,19.48
2019-05-17T11:00:12.502Z,13.50
2019-05-17T11:05:20.096Z,16.55
2019-05-17T11:10:25.440Z,12.10
2019-05-17T11:15:31.093Z,12.90
2019-05-17T11:20:36.808Z,15.00
2019-05-17T11:25:45.931Z,13.83
2019-05-17T11:30:49.790Z,10.78
2019-05-17T11:35:55.378Z,19.48
2019-05-17T11:41:11.004Z,17.48
2019-05-17T11:46:08.556Z,17.15
2019-05-17T11:51:14.074Z,13.28
2019-05-17T11:56:19.696Z,13.45
2019-05-17T12:01:25.244Z,15.72
2019-05-17T12:06:31.076Z,14.47
2019-05-17T12:11:36.774Z,15.98
2019-05-17T12:16:42.440Z,15.23
2019-05-17T12:21:48.032Z,16.20
2019-05-17T12:26:53.696Z,14.45
2019-05-17T12:31:59.288Z,15.43
2019-05-17T12:37:04.905Z,24.10
2019-05-17T12:42:10.520Z,18.98
2019-05-17T12:47:16.214Z,20.12
2019-05-17T12:52:21.896Z,24.50
2019-05-17T12:57:27.419Z,23.40
2019-05-17T13:02:33.030Z,27.32
2019-05-17T13:07:40.618Z,18.55
2019-05-17T13:12:45.895Z,28.40
2019-05-17T13:17:51.689Z,26.52
2019-05-17T13:22:57.403Z,30.80
2019-05-17T13:28:03.072Z,37.33
2019-05-17T13:33:08.746Z,25.65
2019-05-17T13:38:14.618Z,28.73
2019-05-17T13:43:20.313Z,31.37
2019-05-17T13:48:25.874Z,27.45
2019-05-17T13:53:31.527Z,22.25
2019-05-17T13:58:37.166Z,26.65
2019-05-17T14:03:42.832Z,22.07
2019-05-17T14:08:48.372Z,21.55
2019-05-17T14:13:53.957Z,23.92
2019-05-17T14:18:59.756Z,24.37
2019-05-17T14:24:05.621Z,20.85
2019-05-17T14:29:11.154Z,21.70
2019-05-17T14:34:16.708Z,18.60
2019-05-17T14:39:22.240Z,21.55
2019-05-17T14:44:28.036Z,19.27
2019-05-17T14:49:33.676Z,20.82
2019-05-17T14:54:39.597Z,28.12
2019-05-17T14:59:45.308Z,24.57
2019-05-17T15:04:51.021Z,25.45
2019-05-17T15:09:56.619Z,27.67
2019-05-17T15:15:02.227Z,25.12
2019-05-17T15:20:08.236Z,27.95
2019-05-17T15:25:14.406Z,26.52
2019-05-17T15:30:19.933Z,33.83
2019-05-17T15:35:25.567Z,30.62
2019-05-17T15:40:31.165Z,23.32
2019-05-17T15:45:36.878Z,27.90
2019-05-17T15:50:42.462Z,24.20
2019-05-17T15:55:48.158Z,22.73
2019-05-17T16:00:53.868Z,19.80
2019-05-17T16:05:59.488Z,21.23
2019-05-17T16:11:05.210Z,21.05
2019-05-17T16:16:10.871Z,29.55
2019-05-17T16:21:16.470Z,19.52
2019-05-17T16:26:22.100Z,13.72
2019-05-17T16:31:27.695Z,17.35
2019-05-17T16:36:33.442Z,12.28
2019-05-17T16:41:39.059Z,16.17
2019-05-17T16:46:44.605Z,17.27
2019-05-17T16:51:50.343Z,18.67
2019-05-17T16:56:55.900Z,20.12
2019-05-17T17:02:01.548Z,27.87
2019-05-17T17:07:07.161Z,19.37
2019-05-17T17:12:12.832Z,23.75
2019-05-17T17:17:18.386Z,25.20
2019-05-17T17:22:24.043Z,24.45
2019-05-17T17:27:29.769Z,25.60
2019-05-17T17:32:35.450Z,23.55
2019-05-17T17:37:41.211Z,27.22
2019-05-17T17:42:46.816Z,25.55
2019-05-17T17:47:52.415Z,26.37
2019-05-17T17:52:58.114Z,27.80
2019-05-17T17:58:03.808Z,34.55
2019-05-17T18:03:11.157Z,38.40
2019-05-17T18:08:16.600Z,35.58
2019-05-17T18:13:22.284Z,31.95
2019-05-17T18:18:27.998Z,29.27
2019-05-17T18:23:33.653Z,32.10
2019-05-17T18:28:39.332Z,26.52
2019-05-17T18:33:45.027Z,28.80
2019-05-17T18:38:54.366Z,27.22
2019-05-17T18:44:00.569Z,18.25
2019-05-17T18:49:07.008Z,34.75
2019-05-17T18:54:14.750Z,26.45
2019-05-17T18:59:21.348Z,29.33
2019-05-17T19:04:27.299Z,32.85
2019-05-17T19:09:33.342Z,31.42
2019-05-17T19:14:43.115Z,29.07
2019-05-17T19:19:46.474Z,34.48
2019-05-17T19:24:52.420Z,36.00
2019-05-17T19:29:57.940Z,38.35
2019-05-17T19:35:03.710Z,37.80
2019-05-17T19:40:09.816Z,41.37
2019-05-17T19:45:16.135Z,30.85
2019-05-17T19:50:21.838Z,39.30
2019-05-17T19:55:27.673Z,38.45
2019-05-17T20:00:33.430Z,38.75
2019-05-17T20:05:39.067Z,38.78
2019-05-17T20:10:44.818Z,50.17
2019-05-17T20:15:50.528Z,44.85
2019-05-17T20:20:56.119Z,41.02
2019-05-17T20:26:01.696Z,41.80
2019-05-17T20:31:07.569Z,42.30
2019-05-17T20:36:13.337Z,44.88
2019-05-17T20:41:19.515Z,41.53
2019-05-17T20:46:25.585Z,38.10
2019-05-17T20:51:31.337Z,43.63
2019-05-17T20:56:37.264Z,43.02
2019-05-17T21:01:43.094Z,40.65
2019-05-17T21:06:49.284Z,44.77
2019-05-17T21:11:55.772Z,44.35
2019-05-17T21:17:02.827Z,41.05
2019-05-17T21:22:08.602Z,35.50
2019-05-17T21:27:14.383Z,41.37
2019-05-17T21:32:19.989Z,40.10
2019-05-17T21:37:26.092Z,37.33
2019-05-17T21:42:31.722Z,39.67
2019-05-17T21:47:37.324Z,35.48
2019-05-17T21:52:43.356Z,40.00
2019-05-17T21:57:49.056Z,40.40
2019-05-17T22:02:55.166Z,39.03
2019-05-17T22:08:00.771Z,43.00
2019-05-17T22:13:06.728Z,34.20
2019-05-17T22:18:12.324Z,35.43
2019-05-17T22:23:17.904Z,40.78
2019-05-17T22:28:23.515Z,39.40
2019-05-17T22:33:29.536Z,36.98
2019-05-17T22:38:35.316Z,38.65
2019-05-17T22:43:41.179Z,42.88
2019-05-17T22:48:47.013Z,41.55
2019-05-17T22:53:52.594Z,34.45
2019-05-17T22:58:58.109Z,35.48
2019-05-17T23:04:03.711Z,36.77
2019-05-17T23:09:09.459Z,45.63
2019-05-17T23:14:15.056Z,41.33
2019-05-17T23:19:20.739Z,44.65
2019-05-17T23:24:26.743Z,43.70
2019-05-17T23:29:32.320Z,43.58
2019-05-17T23:34:37.870Z,44.35
2019-05-17T23:39:43.492Z,47.33
2019-05-17T23:44:49.055Z,44.85
2019-05-17T23:49:54.631Z,43.35
2019-05-17T23:55:00.376Z,48.55
